Time;durP1;ratioP1;P1;durP2;ratioP2;P2;SDS_P1;SDS_P2;PMS_P1;PMS_P2;Temp;Humidity;BMP_temperature;BMP_pressure;BME280_temperature;BME280_humidity;BME280_pressure;Samples;Min_cycle;Max_cycle;Signal;HPM_P1;HPM_P2
2020/12/31 00:01:27;;;;;;;8.55;7.50;;;5.70;91.00;;;;;;5045640;28;20036;-58
2020/12/31 00:03:53;;;;;;;9.30;7.63;;;5.70;91.00;;;;;;5046827;28;20103;-57
2020/12/31 00:06:19;;;;;;;9.60;7.25;;;5.70;91.10;;;;;;5044793;28;20041;-57
2020/12/31 00:08:44;;;;;;;7.95;7.07;;;5.70;91.10;;;;;;5028679;28;20020;-59
2020/12/31 00:11:10;;;;;;;7.95;7.07;;;5.70;91.10;;;;;;5045166;28;20580;-57
2020/12/31 00:13:36;;;;;;;8.40;6.93;;;5.60;91.00;;;;;;5029406;28;20029;-57
2020/12/31 00:16:02;;;;;;;9.07;7.43;;;5.70;91.00;;;;;;5027525;28;20041;-57
2020/12/31 00:18:27;;;;;;;10.13;7.65;;;5.70;91.00;;;;;;5031657;28;20020;-57
2020/12/31 00:20:53;;;;;;;8.88;7.30;;;5.70;91.00;;;;;;5022610;28;20020;-57
2020/12/31 00:23:18;;;;;;;9.02;7.47;;;5.70;91.00;;;;;;5047237;28;20094;-59
2020/12/31 00:25:53;;;;;;;9.93;7.10;;;5.60;91.00;;;;;;5046968;28;20044;-58
2020/12/31 00:28:22;;;;;;;12.02;8.13;;;5.70;91.00;;;;;;5037285;28;20036;-56
2020/12/31 00:30:48;;;;;;;8.63;7.50;;;5.60;91.00;;;;;;5018035;28;20065;-57
2020/12/31 00:33:14;;;;;;;8.63;7.20;;;5.60;91.00;;;;;;5029396;28;20080;-57
2020/12/31 00:35:40;;;;;;;9.77;7.45;;;5.60;91.00;;;;;;5046805;28;20531;-58
2020/12/31 00:38:06;;;;;;;9.65;7.30;;;5.60;91.00;;;;;;5047887;28;20025;-57
2020/12/31 00:40:33;;;;;;;9.70;7.05;;;5.60;91.00;;;;;;5046936;28;20350;-58
2020/12/31 00:42:59;;;;;;;9.75;8.00;;;5.60;91.00;;;;;;5046880;28;20029;-59
2020/12/31 00:45:25;;;;;;;9.18;7.43;;;5.60;91.00;;;;;;5041989;28;20018;-57
2020/12/31 00:47:50;;;;;;;9.15;6.97;;;5.60;91.00;;;;;;5030546;28;20025;-57
2020/12/31 00:50:16;;;;;;;8.77;7.43;;;5.60;91.00;;;;;;5029389;28;20037;-59
2020/12/31 00:52:41;;;;;;;8.73;7.78;;;5.60;91.00;;;;;;5048598;28;20484;-57
2020/12/31 00:55:07;;;;;;;7.43;6.63;;;5.60;91.00;;;;;;5046681;28;20037;-58
2020/12/31 00:57:32;;;;;;;10.80;8.00;;;5.60;91.00;;;;;;5047020;28;20033;-58
2020/12/31 00:59:57;;;;;;;10.50;8.00;;;5.60;91.00;;;;;;5034247;28;20045;-58
2020/12/31 01:02:23;;;;;;;9.02;7.43;;;5.60;91.00;;;;;;5048335;28;20087;-56
2020/12/31 01:04:49;;;;;;;8.90;7.70;;;5.60;91.00;;;;;;5047022;28;20025;-57
2020/12/31 01:07:15;;;;;;;10.23;8.05;;;5.60;91.00;;;;;;5048051;28;20025;-58
2020/12/31 01:09:41;;;;;;;11.32;7.78;;;5.60;91.00;;;;;;5045898;28;20442;-57
2020/12/31 01:12:06;;;;;;;10.45;8.20;;;5.60;91.00;;;;;;5048252;28;20021;-58
2020/12/31 01:14:32;;;;;;;10.05;7.55;;;5.60;91.00;;;;;;5029479;28;20082;-58
2020/12/31 01:16:57;;;;;;;8.00;7.03;;;5.60;91.00;;;;;;5056191;28;20099;-58
2020/12/31 01:19:23;;;;;;;9.88;8.02;;;5.60;91.00;;;;;;5032952;28;20064;-57
2020/12/31 01:21:48;;;;;;;9.80;7.90;;;5.60;91.00;;;;;;5047483;28;20068;-56
2020/12/31 01:24:14;;;;;;;10.27;7.22;;;5.60;91.00;;;;;;5048726;28;20548;-58
2020/12/31 01:26:39;;;;;;;9.10;7.45;;;5.60;91.00;;;;;;5049240;28;20041;-58
2020/12/31 01:29:05;;;;;;;8.60;7.75;;;5.60;91.00;;;;;;5048996;28;20025;-58
2020/12/31 01:31:31;;;;;;;10.48;7.53;;;5.60;91.00;;;;;;5027927;28;20025;-57
2020/12/31 01:33:56;;;;;;;9.45;8.07;;;5.60;91.00;;;;;;5023328;28;20496;-56
2020/12/31 01:36:22;;;;;;;11.15;7.78;;;5.60;91.00;;;;;;5047962;28;20032;-58
2020/12/31 01:38:48;;;;;;;11.65;8.32;;;5.60;91.00;;;;;;5029015;28;20044;-57
2020/12/31 01:41:14;;;;;;;10.02;8.35;;;5.50;91.00;;;;;;5048130;28;20561;-56
2020/12/31 01:43:39;;;;;;;7.97;7.15;;;5.60;91.00;;;;;;5021833;28;20068;-58
2020/12/31 01:46:10;;;;;;;10.10;8.48;;;5.50;91.00;;;;;;5027389;28;20061;-59
2020/12/31 01:48:37;;;;;;;10.38;7.63;;;5.50;91.00;;;;;;5016333;28;20128;-57
2020/12/31 01:51:02;;;;;;;8.73;7.65;;;5.50;91.00;;;;;;5050678;28;20049;-58
2020/12/31 01:53:28;;;;;;;8.18;7.25;;;5.50;91.00;;;;;;5021521;28;20057;-56
2020/12/31 01:55:53;;;;;;;8.65;7.55;;;5.60;91.00;;;;;;5018037;28;20100;-58
2020/12/31 01:58:19;;;;;;;8.73;7.82;;;5.50;91.00;;;;;;5029008;28;20041;-57
2020/12/31 02:00:45;;;;;;;8.55;7.15;;;5.60;91.00;;;;;;5025159;28;20473;-58
2020/12/31 02:03:11;;;;;;;8.52;7.40;;;5.50;91.00;;;;;;5028126;28;20021;-59
2020/12/31 02:05:36;;;;;;;7.70;7.00;;;5.50;91.00;;;;;;5050901;28;20084;-57
2020/12/31 02:08:02;;;;;;;9.82;8.07;;;5.50;91.00;;;;;;5029951;28;20079;-59
2020/12/31 02:10:27;;;;;;;9.30;7.78;;;5.50;91.00;;;;;;5030933;28;20493;-57
2020/12/31 02:12:53;;;;;;;10.63;7.00;;;5.50;91.00;;;;;;5047806;28;20033;-56
2020/12/31 02:15:18;;;;;;;9.93;8.00;;;5.50;91.00;;;;;;5017324;28;20503;-58
2020/12/31 02:17:44;;;;;;;9.25;7.90;;;5.50;91.00;;;;;;5034593;28;20052;-57
2020/12/31 02:20:13;;;;;;;8.80;7.03;;;5.50;91.00;;;;;;5038541;28;20025;-57
2020/12/31 02:22:38;;;;;;;8.73;7.82;;;5.50;91.00;;;;;;5028573;28;20041;-59
2020/12/31 02:25:04;;;;;;;8.35;7.45;;;5.50;91.00;;;;;;5050059;28;20066;-57
2020/12/31 02:27:30;;;;;;;8.48;7.50;;;5.50;91.00;;;;;;5029787;28;20112;-57
2020/12/31 02:29:55;;;;;;;9.35;8.15;;;5.50;91.10;;;;;;5025178;28;20033;-58
2020/12/31 02:32:21;;;;;;;8.68;7.28;;;5.40;91.10;;;;;;5043655;28;20087;-57
2020/12/31 02:34:46;;;;;;;8.02;7.22;;;5.40;91.10;;;;;;5048068;28;20060;-57
2020/12/31 02:37:12;;;;;;;8.90;7.45;;;5.40;91.10;;;;;;5029432;28;20522;-57
2020/12/31 02:39:37;;;;;;;8.55;7.68;;;5.40;91.10;;;;;;5049800;28;20534;-57
2020/12/31 02:42:03;;;;;;;8.68;7.57;;;5.40;91.10;;;;;;5047227;28;20025;-57
2020/12/31 02:44:28;;;;;;;9.63;7.78;;;5.40;91.10;;;;;;5027548;28;20040;-56
2020/12/31 02:46:54;;;;;;;8.40;7.05;;;5.40;91.10;;;;;;5045416;28;20029;-57
2020/12/31 02:49:19;;;;;;;8.75;7.85;;;5.40;91.20;;;;;;5030640;28;20109;-58
2020/12/31 02:51:48;;;;;;;10.23;8.55;;;5.40;91.10;;;;;;5048750;28;20481;-57
2020/12/31 02:54:13;;;;;;;8.93;7.70;;;5.40;91.10;;;;;;5022904;28;20029;-57
2020/12/31 02:56:39;;;;;;;9.20;7.22;;;5.40;91.20;;;;;;5051020;28;20527;-59
2020/12/31 02:59:04;;;;;;;8.30;7.50;;;5.30;91.10;;;;;;5038962;28;20879;-57
2020/12/31 03:01:30;;;;;;;9.30;8.23;;;5.30;91.10;;;;;;5044535;28;20441;-58
2020/12/31 03:03:55;;;;;;;8.57;7.68;;;5.30;91.20;;;;;;5039188;28;20051;-56
2020/12/31 03:06:21;;;;;;;10.13;7.60;;;5.30;91.20;;;;;;5018857;28;20025;-58
2020/12/31 03:08:47;;;;;;;9.02;7.75;;;5.30;91.20;;;;;;5051115;28;20041;-58
2020/12/31 03:11:13;;;;;;;8.90;6.95;;;5.30;91.10;;;;;;5031881;28;20056;-58
2020/12/31 03:13:39;;;;;;;8.55;7.35;;;5.30;91.20;;;;;;5050546;28;20444;-57
2020/12/31 03:16:04;;;;;;;9.18;8.10;;;5.30;91.20;;;;;;5056101;28;20060;-59
2020/12/31 03:18:30;;;;;;;8.15;7.35;;;5.20;91.10;;;;;;5052132;28;20033;-57
2020/12/31 03:20:55;;;;;;;9.88;7.70;;;5.20;91.10;;;;;;5044837;28;20036;-58
2020/12/31 03:23:21;;;;;;;9.70;7.50;;;5.20;91.20;;;;;;5030448;28;20052;-59
2020/12/31 03:25:47;;;;;;;8.05;7.00;;;5.20;91.20;;;;;;5047158;28;20032;-58
2020/12/31 03:28:15;;;;;;;8.45;7.10;;;5.20;91.20;;;;;;5031601;28;20024;-59
2020/12/31 03:30:42;;;;;;;9.70;8.20;;;5.20;91.20;;;;;;5020449;28;20025;-58
2020/12/31 03:33:12;;;;;;;8.30;7.35;;;5.20;91.20;;;;;;5031288;28;20055;-57
2020/12/31 03:35:41;;;;;;;7.85;7.05;;;5.10;91.20;;;;;;5046787;28;20132;-58
2020/12/31 03:38:06;;;;;;;8.55;7.53;;;5.10;91.20;;;;;;5031046;28;20111;-58
2020/12/31 03:40:32;;;;;;;8.88;7.55;;;5.10;91.20;;;;;;5048128;28;20119;-58
2020/12/31 03:42:57;;;;;;;9.32;7.63;;;5.10;91.20;;;;;;5046585;28;20033;-57
2020/12/31 03:45:23;;;;;;;8.15;7.30;;;5.10;91.20;;;;;;5041975;28;20033;-58
2020/12/31 03:47:48;;;;;;;9.32;7.35;;;5.10;91.20;;;;;;5029361;28;20052;-57
2020/12/31 03:50:14;;;;;;;8.27;6.80;;;5.10;91.20;;;;;;5015762;28;20120;-58
2020/12/31 03:52:39;;;;;;;8.48;7.18;;;5.10;91.20;;;;;;5047624;28;20476;-57
2020/12/31 03:55:05;;;;;;;8.07;7.20;;;5.00;91.20;;;;;;5044747;28;20037;-56
2020/12/31 03:57:30;;;;;;;9.55;7.47;;;5.00;91.20;;;;;;5047489;28;20025;-57
2020/12/31 03:59:56;;;;;;;9.57;7.70;;;5.00;91.10;;;;;;5026488;28;20029;-58
2020/12/31 04:02:21;;;;;;;10.45;7.30;;;5.00;91.10;;;;;;5045717;28;20025;-56
2020/12/31 04:04:47;;;;;;;8.70;6.85;;;5.00;91.20;;;;;;5044303;28;20025;-56
2020/12/31 04:07:12;;;;;;;9.43;6.90;;;5.00;91.10;;;;;;5046436;28;20484;-58
2020/12/31 04:09:38;;;;;;;7.63;6.78;;;5.00;91.10;;;;;;5044265;28;20159;-57
2020/12/31 04:12:03;;;;;;;7.82;6.85;;;5.00;91.10;;;;;;5028087;28;20545;-57
2020/12/31 04:14:29;;;;;;;7.97;6.88;;;4.90;91.10;;;;;;5032890;28;20108;-57
2020/12/31 04:16:55;;;;;;;8.60;7.50;;;4.90;91.10;;;;;;5046574;28;20033;-57
2020/12/31 04:19:20;;;;;;;8.05;7.07;;;4.90;91.10;;;;;;5026700;28;20028;-56
2020/12/31 04:21:47;;;;;;;8.27;7.07;;;4.90;91.10;;;;;;5030801;28;20392;-58
2020/12/31 04:24:13;;;;;;;7.22;6.53;;;4.90;91.20;;;;;;5048103;28;20491;-58
2020/12/31 04:26:38;;;;;;;8.32;6.80;;;4.90;91.20;;;;;;5029356;28;20037;-56
2020/12/31 04:29:04;;;;;;;8.13;7.32;;;4.90;91.20;;;;;;5047851;28;20086;-58
2020/12/31 04:31:29;;;;;;;8.02;6.95;;;4.80;91.20;;;;;;5048441;28;20033;-58
2020/12/31 04:33:55;;;;;;;8.00;7.20;;;4.80;91.10;;;;;;5029432;28;20076;-58
2020/12/31 04:36:20;;;;;;;8.43;7.25;;;4.80;91.10;;;;;;5048136;28;20047;-59
2020/12/31 04:38:46;;;;;;;7.57;6.50;;;4.80;91.10;;;;;;5046331;28;20485;-58
2020/12/31 04:41:12;;;;;;;7.65;6.50;;;4.80;91.10;;;;;;5030466;28;20096;-57
2020/12/31 04:43:38;;;;;;;7.63;6.82;;;4.80;91.20;;;;;;5026770;28;20377;-58
2020/12/31 04:46:05;;;;;;;7.82;7.00;;;4.80;91.20;;;;;;5030145;28;20028;-58
2020/12/31 04:48:38;;;;;;;7.25;6.53;;;4.80;91.10;;;;;;5029865;28;20039;-57
2020/12/31 04:51:06;;;;;;;7.35;6.15;;;4.80;91.10;;;;;;5020907;28;20033;-57
2020/12/31 04:53:31;;;;;;;7.30;6.55;;;4.70;91.10;;;;;;5047169;28;20025;-56
2020/12/31 04:55:57;;;;;;;8.88;7.20;;;4.70;91.10;;;;;;5019989;28;20490;-58
2020/12/31 04:58:22;;;;;;;7.95;6.93;;;4.70;91.10;;;;;;5027243;28;20472;-59
2020/12/31 05:00:48;;;;;;;7.75;6.90;;;4.70;91.10;;;;;;5047439;28;20036;-58
2020/12/31 05:03:13;;;;;;;9.52;7.03;;;4.70;91.10;;;;;;5045543;28;20113;-58
2020/12/31 05:05:39;;;;;;;7.53;6.68;;;4.70;91.10;;;;;;5047623;28;20041;-56
2020/12/31 05:08:05;;;;;;;8.20;7.07;;;4.70;91.10;;;;;;5031678;28;20022;-59
2020/12/31 05:10:31;;;;;;;6.97;6.28;;;4.70;91.10;;;;;;5030656;28;20474;-58
2020/12/31 05:13:01;;;;;;;7.50;6.72;;;4.60;91.10;;;;;;5031276;28;20491;-59
2020/12/31 05:15:35;;;;;;;8.32;6.75;;;4.60;91.10;;;;;;5016379;28;20086;-57
2020/12/31 05:18:24;;;;;;;7.28;5.95;;;4.60;91.10;;;;;;5028164;28;20022;-56
2020/12/31 05:20:50;;;;;;;7.40;6.22;;;4.60;91.10;;;;;;5046166;28;20029;-57
2020/12/31 05:23:17;;;;;;;7.22;6.40;;;4.60;91.10;;;;;;5017346;28;20021;-57
2020/12/31 05:25:43;;;;;;;6.75;6.00;;;4.60;91.10;;;;;;5048741;28;20028;-59
2020/12/31 05:28:28;;;;;;;7.30;6.55;;;4.60;91.10;;;;;;5034438;28;20037;-56
2020/12/31 05:30:58;;;;;;;7.15;6.45;;;4.50;91.10;;;;;;5046299;28;20099;-59
2020/12/31 05:33:29;;;;;;;7.22;6.00;;;4.50;91.10;;;;;;5018873;28;20735;-57
2020/12/31 05:36:16;;;;;;;7.10;6.40;;;4.50;91.10;;;;;;5029419;28;20034;-57
2020/12/31 05:38:46;;;;;;;6.88;6.13;;;4.50;91.10;;;;;;5031010;28;20440;-57
2020/12/31 05:41:12;;;;;;;7.10;6.38;;;4.50;91.40;;;;;;5029768;28;20059;-57
2020/12/31 05:43:39;;;;;;;7.13;6.43;;;4.50;91.10;;;;;;5028417;28;20080;-57
2020/12/31 05:46:09;;;;;;;7.35;6.47;;;4.50;91.10;;;;;;5030975;28;20024;-57
2020/12/31 05:48:34;;;;;;;8.07;6.38;;;4.50;91.10;;;;;;5029839;28;20405;-59
2020/12/31 05:51:22;;;;;;;7.28;6.53;;;4.50;91.10;;;;;;5030442;28;20026;-59
2020/12/31 05:53:48;;;;;;;7.57;6.53;;;4.50;91.20;;;;;;5026560;28;20388;-58
2020/12/31 05:56:14;;;;;;;7.47;6.50;;;4.40;91.20;;;;;;5030684;28;20026;-58
2020/12/31 05:58:39;;;;;;;8.23;6.53;;;4.40;91.20;;;;;;5030607;28;20256;-59
2020/12/31 06:01:05;;;;;;;7.88;6.50;;;4.40;91.20;;;;;;5030653;28;20340;-56
2020/12/31 06:03:39;;;;;;;6.82;6.13;;;4.40;91.20;;;;;;5029239;28;20485;-58
2020/12/31 06:06:05;;;;;;;7.85;6.55;;;4.40;91.20;;;;;;5031582;28;20107;-59
2020/12/31 06:08:32;;;;;;;7.90;6.93;;;4.40;91.20;;;;;;5025950;28;20052;-59
2020/12/31 06:11:01;;;;;;;7.22;6.53;;;4.40;91.20;;;;;;5024080;28;20033;-55
2020/12/31 06:13:28;;;;;;;6.90;6.00;;;4.40;91.20;;;;;;5023631;28;20029;-58
2020/12/31 06:15:55;;;;;;;7.45;6.65;;;4.40;91.20;;;;;;5020409;28;20029;-56
2020/12/31 06:18:20;;;;;;;7.07;6.35;;;4.40;91.20;;;;;;5020723;28;20026;-58
2020/12/31 06:20:47;;;;;;;8.48;6.93;;;4.40;91.20;;;;;;5021615;28;20025;-59
2020/12/31 06:23:13;;;;;;;6.95;6.25;;;4.40;91.20;;;;;;5022823;28;20026;-58
2020/12/31 06:25:40;;;;;;;8.57;6.97;;;4.30;91.20;;;;;;5022995;28;20087;-59
2020/12/31 06:28:15;;;;;;;8.45;6.47;;;4.40;91.20;;;;;;5021121;28;20036;-58
2020/12/31 06:30:42;;;;;;;;;;;4.40;91.20;;;;;;5024221;28;20048;-59
2020/12/31 06:33:12;;;;;;;7.30;6.28;;;4.30;91.20;;;;;;5027324;28;19967;-58
2020/12/31 06:35:39;;;;;;;7.85;6.30;;;4.40;91.30;;;;;;5026266;28;20017;-58
2020/12/31 06:38:04;;;;;;;7.57;6.78;;;4.30;91.30;;;;;;5023066;28;20029;-58
2020/12/31 06:40:30;;;;;;;7.38;6.57;;;4.30;91.30;;;;;;5025362;28;20099;-56
2020/12/31 06:43:03;;;;;;;7.50;6.55;;;4.30;91.30;;;;;;5022741;28;20032;-56
2020/12/31 06:45:47;;;;;;;7.57;6.78;;;4.30;91.30;;;;;;5044779;28;20029;-56
2020/12/31 06:48:25;;;;;;;7.15;6.43;;;4.30;91.30;;;;;;5022997;28;20358;-56
2020/12/31 06:51:13;;;;;;;8.00;6.28;;;4.30;91.30;;;;;;5042014;28;20385;-59
2020/12/31 06:53:45;;;;;;;8.23;6.60;;;4.30;91.30;;;;;;5039278;28;20033;-57
2020/12/31 06:56:11;;;;;;;8.77;7.20;;;4.30;91.30;;;;;;5031518;28;20151;-57
2020/12/31 06:58:37;;;;;;;9.20;7.90;;;4.30;91.30;;;;;;5047736;28;20043;-56
2020/12/31 07:01:25;;;;;;;7.82;6.97;;;4.30;91.30;;;;;;5045149;28;20021;-58
2020/12/31 07:03:50;;;;;;;8.85;6.82;;;4.30;91.30;;;;;;5044669;28;20034;-56
2020/12/31 07:06:43;;;;;;;8.45;6.88;;;4.30;91.40;;;;;;5045289;28;20124;-56
2020/12/31 07:09:26;;;;;;;9.02;7.07;;;4.20;91.40;;;;;;5045804;28;20063;-58
2020/12/31 07:11:57;;;;;;;8.68;7.38;;;4.20;91.30;;;;;;5026573;28;20071;-56
2020/12/31 07:14:23;;;;;;;7.38;6.65;;;4.20;91.40;;;;;;5029738;28;20025;-56
2020/12/31 07:16:55;;;;;;;7.53;6.68;;;4.20;91.40;;;;;;5043865;28;20028;-57
2020/12/31 07:19:22;;;;;;;10.45;7.60;;;4.20;91.40;;;;;;5038677;28;20044;-56
2020/12/31 07:21:50;;;;;;;8.48;7.57;;;4.20;91.30;;;;;;5015692;28;20029;-59
2020/12/31 07:24:22;;;;;;;7.95;7.15;;;4.20;91.40;;;;;;5029911;28;20476;-58
2020/12/31 07:26:49;;;;;;;8.18;6.88;;;4.20;91.40;;;;;;5044193;28;20045;-58
2020/12/31 07:29:23;;;;;;;7.45;6.68;;;4.20;91.40;;;;;;5029180;28;20388;-56
2020/12/31 07:31:50;;;;;;;9.45;8.15;;;4.20;91.40;;;;;;5024780;28;20033;-59
2020/12/31 07:34:20;;;;;;;8.73;7.38;;;4.20;91.40;;;;;;5046397;28;20056;-57
2020/12/31 07:37:05;;;;;;;8.40;7.50;;;4.20;91.40;;;;;;5047347;28;20031;-56
2020/12/31 07:39:31;;;;;;;9.85;8.07;;;4.20;91.40;;;;;;5026230;28;20033;-57
2020/12/31 07:42:10;;;;;;;9.35;7.45;;;4.20;91.40;;;;;;5046525;28;20108;-58
2020/12/31 07:44:35;;;;;;;7.63;6.90;;;4.20;91.50;;;;;;5025436;28;20729;-56
2020/12/31 07:47:01;;;;;;;7.95;6.72;;;4.20;91.50;;;;;;5029220;28;20116;-59
2020/12/31 07:49:26;;;;;;;7.85;7.05;;;4.20;91.40;;;;;;5043823;28;20036;-56
2020/12/31 07:51:52;;;;;;;8.10;7.28;;;4.20;91.40;;;;;;5031208;28;20082;-58
2020/12/31 07:54:19;;;;;;;7.63;6.80;;;4.20;91.70;;;;;;5043951;28;20024;-57
2020/12/31 07:56:46;;;;;;;8.52;7.63;;;4.20;91.40;;;;;;5039823;28;20044;-59
2020/12/31 07:59:11;;;;;;;7.97;7.18;;;4.20;91.40;;;;;;5028258;28;20017;-57
2020/12/31 08:01:37;;;;;;;7.93;7.13;;;4.20;91.50;;;;;;5039878;28;20484;-56
2020/12/31 08:04:09;;;;;;;8.98;7.22;;;4.20;91.50;;;;;;5034327;28;20029;-59
2020/12/31 08:06:35;;;;;;;7.82;7.10;;;4.20;91.50;;;;;;5045932;28;20017;-57
2020/12/31 08:09:00;;;;;;;8.20;7.38;;;4.10;91.50;;;;;;5053194;28;20051;-57
2020/12/31 08:11:26;;;;;;;7.93;6.68;;;4.10;91.50;;;;;;5044178;28;20032;-56
2020/12/31 08:14:01;;;;;;;10.02;6.95;;;4.20;91.60;;;;;;5031128;28;20033;-58
2020/12/31 08:16:27;;;;;;;9.38;6.70;;;4.10;91.50;;;;;;5051842;28;20037;-58
2020/12/31 08:18:52;;;;;;;11.82;7.13;;;4.20;91.50;;;;;;5027523;28;20036;-55
2020/12/31 08:21:18;;;;;;;12.43;7.05;;;4.10;91.50;;;;;;5024733;28;20036;-56
2020/12/31 08:23:45;;;;;;;9.75;6.53;;;4.20;91.50;;;;;;5021681;28;20507;-57
2020/12/31 08:26:13;;;;;;;8.52;6.53;;;4.20;91.50;;;;;;5029930;28;20028;-59
2020/12/31 08:28:38;;;;;;;7.85;6.53;;;4.20;91.50;;;;;;5029316;28;20028;-55
2020/12/31 08:31:15;;;;;;;9.40;6.80;;;4.20;91.60;;;;;;5028852;28;20048;-57
2020/12/31 08:33:40;;;;;;;7.32;6.22;;;4.20;91.60;;;;;;5047714;28;20114;-59
2020/12/31 08:36:06;;;;;;;6.85;6.10;;;4.20;91.60;;;;;;5011728;28;20037;-56
2020/12/31 08:38:36;;;;;;;10.68;6.93;;;4.20;91.70;;;;;;5049807;28;20043;-57
2020/12/31 08:41:05;;;;;;;7.68;6.78;;;4.20;91.60;;;;;;5030833;28;20025;-58
2020/12/31 08:43:38;;;;;;;10.95;6.60;;;4.20;91.60;;;;;;5029019;28;20028;-56
2020/12/31 08:46:05;;;;;;;6.95;6.25;;;4.20;91.60;;;;;;5048015;28;20163;-57
2020/12/31 08:48:32;;;;;;;7.32;6.00;;;4.20;91.60;;;;;;5043165;28;20033;-56
2020/12/31 08:51:00;;;;;;;7.28;6.03;;;4.20;91.70;;;;;;5025819;28;20025;-58
2020/12/31 08:53:29;;;;;;;11.05;6.45;;;4.20;91.60;;;;;;5042355;28;20196;-58
2020/12/31 08:55:55;;;;;;;12.23;7.18;;;4.20;91.60;;;;;;5025617;28;20522;-58
2020/12/31 08:58:25;;;;;;;8.48;6.55;;;4.30;91.70;;;;;;5028637;28;20087;-59
2020/12/31 09:00:50;;;;;;;17.15;7.45;;;4.20;91.70;;;;;;5033045;28;20040;-58
2020/12/31 09:03:18;;;;;;;11.10;7.28;;;4.20;91.70;;;;;;5037434;28;20056;-56
2020/12/31 09:05:54;;;;;;;15.55;6.72;;;4.30;91.70;;;;;;5031306;28;20033;-59
2020/12/31 09:08:20;;;;;;;14.00;7.22;;;4.30;91.60;;;;;;5028099;28;20512;-56
2020/12/31 09:10:45;;;;;;;15.07;6.82;;;4.30;91.60;;;;;;5049206;28;20041;-57
2020/12/31 09:13:18;;;;;;;10.93;6.30;;;4.30;91.60;;;;;;5025296;28;20032;-59
2020/12/31 09:15:43;;;;;;;21.42;6.88;;;4.30;91.60;;;;;;5010912;28;20477;-58
2020/12/31 09:18:19;;;;;;;18.95;6.55;;;4.40;91.60;;;;;;5041483;28;20032;-57
2020/12/31 09:20:44;;;;;;;10.23;5.93;;;4.30;91.90;;;;;;5038280;28;20026;-57
2020/12/31 09:23:11;;;;;;;7.28;6.47;;;4.40;91.60;;;;;;5038726;28;20218;-58
2020/12/31 09:25:49;;;;;;;16.85;6.45;;;4.30;91.50;;;;;;5019411;28;20036;-57
2020/12/31 09:28:15;;;;;;;10.32;6.80;;;4.40;91.60;;;;;;5025139;28;20263;-58
2020/12/31 09:30:41;;;;;;;16.83;6.93;;;4.40;91.50;;;;;;5024768;28;20115;-56
2020/12/31 09:33:06;;;;;;;15.18;6.80;;;4.40;91.50;;;;;;5041601;28;20099;-57
2020/12/31 09:35:32;;;;;;;16.75;6.60;;;4.40;91.50;;;;;;5020150;28;20032;-59
2020/12/31 09:37:59;;;;;;;13.13;6.43;;;4.40;91.50;;;;;;5025292;28;20472;-57
2020/12/31 09:40:24;;;;;;;17.63;6.53;;;4.40;91.50;;;;;;5038529;28;20021;-56
2020/12/31 09:42:50;;;;;;;14.02;6.45;;;4.40;91.40;;;;;;5043407;28;20098;-56
2020/12/31 09:45:16;;;;;;;12.77;6.70;;;4.40;91.40;;;;;;5044574;28;20023;-57
2020/12/31 09:47:42;;;;;;;13.13;6.40;;;4.40;91.50;;;;;;5027968;28;20121;-56
2020/12/31 09:50:09;;;;;;;13.77;6.10;;;4.50;91.50;;;;;;5025816;28;20039;-59
2020/12/31 09:52:35;;;;;;;10.68;6.60;;;4.40;91.40;;;;;;5041961;28;20027;-56
2020/12/31 09:55:01;;;;;;;9.75;6.45;;;4.50;91.40;;;;;;5041996;28;20034;-58
2020/12/31 09:57:26;;;;;;;7.78;5.80;;;4.50;91.40;;;;;;5039254;28;20029;-56
2020/12/31 09:59:52;;;;;;;14.82;6.10;;;4.50;91.40;;;;;;5042992;28;20118;-56
2020/12/31 10:02:17;;;;;;;11.60;6.07;;;4.50;91.30;;;;;;5029506;28;20045;-58
2020/12/31 10:04:43;;;;;;;15.32;5.82;;;4.50;91.30;;;;;;5023807;28;20029;-57
2020/12/31 10:07:08;;;;;;;11.30;6.00;;;4.50;91.30;;;;;;5048411;28;20196;-56
2020/12/31 10:09:34;;;;;;;12.82;5.63;;;4.50;91.30;;;;;;5026721;28;20025;-56
2020/12/31 10:11:59;;;;;;;11.25;5.80;;;4.60;91.30;;;;;;5049110;28;20029;-57
2020/12/31 10:14:25;;;;;;;15.48;7.10;;;4.50;91.30;;;;;;5043636;28;20029;-59
2020/12/31 10:16:50;;;;;;;18.15;6.55;;;4.60;91.30;;;;;;5047309;28;20036;-57
2020/12/31 10:19:16;;;;;;;17.33;6.40;;;4.60;91.30;;;;;;5056117;28;20531;-58
2020/12/31 10:21:45;;;;;;;15.90;6.18;;;4.60;91.30;;;;;;5026801;28;20033;-56
2020/12/31 10:24:11;;;;;;;23.02;6.68;;;4.60;91.30;;;;;;5047030;28;20022;-56
2020/12/31 10:26:36;;;;;;;25.35;6.97;;;4.70;91.30;;;;;;5029268;28;20033;-58
2020/12/31 10:29:02;;;;;;;10.98;5.80;;;4.60;91.20;;;;;;5049041;28;20029;-58
2020/12/31 10:31:27;;;;;;;16.52;6.35;;;4.60;91.20;;;;;;5047798;28;20059;-57
2020/12/31 10:33:53;;;;;;;15.82;6.90;;;4.60;91.20;;;;;;5040965;28;20056;-59
2020/12/31 10:36:18;;;;;;;16.92;5.97;;;4.60;91.20;;;;;;5038708;28;20033;-56
2020/12/31 10:38:44;;;;;;;12.38;5.35;;;4.70;91.20;;;;;;5023119;28;20104;-56
2020/12/31 10:41:12;;;;;;;20.73;6.43;;;4.70;91.20;;;;;;5043385;28;20536;-57
2020/12/31 10:43:37;;;;;;;13.65;7.32;;;4.70;91.20;;;;;;5028023;28;20100;-56
2020/12/31 10:46:03;;;;;;;11.75;6.38;;;4.70;91.10;;;;;;5048870;28;20116;-56
2020/12/31 10:48:28;;;;;;;15.00;5.82;;;4.70;91.00;;;;;;5041142;28;20438;-59
2020/12/31 10:50:57;;;;;;;10.80;6.07;;;4.70;91.00;;;;;;5051054;28;20080;-57
2020/12/31 10:53:23;;;;;;;10.27;6.25;;;4.80;91.00;;;;;;5030343;28;20055;-56
2020/12/31 10:55:48;;;;;;;16.02;6.18;;;4.80;90.90;;;;;;5031540;28;20496;-59
2020/12/31 10:58:14;;;;;;;9.55;5.65;;;4.80;90.90;;;;;;5049288;28;20036;-58
2020/12/31 11:00:39;;;;;;;12.82;6.03;;;4.80;90.80;;;;;;5030958;28;20045;-60
2020/12/31 11:03:05;;;;;;;7.75;6.00;;;4.80;90.80;;;;;;5052243;28;20112;-57
2020/12/31 11:05:30;;;;;;;7.63;5.90;;;4.80;90.80;;;;;;5052115;28;20025;-58
2020/12/31 11:07:56;;;;;;;11.77;5.78;;;4.80;90.70;;;;;;5032909;28;20485;-57
2020/12/31 11:10:21;;;;;;;20.25;6.00;;;4.90;90.80;;;;;;5030500;28;20033;-58
2020/12/31 11:12:47;;;;;;;14.57;5.63;;;4.90;90.80;;;;;;5032693;28;20037;-56
2020/12/31 11:15:12;;;;;;;14.40;5.70;;;4.90;90.70;;;;;;5034306;28;20041;-58
2020/12/31 11:17:38;;;;;;;7.15;5.38;;;4.90;90.70;;;;;;5052862;28;20021;-59
2020/12/31 11:20:04;;;;;;;9.02;6.10;;;4.90;90.70;;;;;;5041905;28;20029;-59
2020/12/31 11:22:29;;;;;;;10.52;5.85;;;4.90;90.70;;;;;;5023033;28;20519;-57
2020/12/31 11:24:55;;;;;;;9.52;5.50;;;5.00;90.70;;;;;;5047841;28;20480;-58
2020/12/31 11:27:20;;;;;;;9.75;5.47;;;5.00;90.60;;;;;;5051173;28;20362;-58
2020/12/31 11:29:46;;;;;;;9.43;6.28;;;5.00;90.60;;;;;;5047489;28;20045;-57
2020/12/31 11:32:11;;;;;;;9.35;5.72;;;5.00;90.50;;;;;;5047177;28;20053;-57
2020/12/31 11:34:37;;;;;;;10.88;5.57;;;5.00;90.40;;;;;;5035523;28;20058;-56
2020/12/31 11:37:02;;;;;;;13.07;6.30;;;5.00;90.30;;;;;;5048546;28;20024;-56
2020/12/31 11:39:28;;;;;;;8.40;5.80;;;5.00;90.30;;;;;;5045805;28;20044;-57
2020/12/31 11:41:57;;;;;;;11.50;6.18;;;5.00;90.30;;;;;;5047109;28;20560;-58
2020/12/31 11:44:23;;;;;;;8.65;6.28;;;5.10;90.40;;;;;;5026707;28;20033;-59
2020/12/31 11:46:50;;;;;;;10.82;5.68;;;5.10;90.30;;;;;;5033239;28;20463;-56
2020/12/31 11:49:16;;;;;;;9.50;5.57;;;5.10;90.20;;;;;;5040632;28;20033;-57
2020/12/31 11:51:42;;;;;;;9.70;5.40;;;5.10;90.20;;;;;;5031508;28;20041;-58
2020/12/31 11:54:07;;;;;;;9.25;5.70;;;5.10;90.10;;;;;;5047637;28;20030;-58
2020/12/31 11:56:33;;;;;;;7.47;5.20;;;5.10;90.10;;;;;;5038750;28;20040;-57
2020/12/31 11:58:58;;;;;;;12.90;6.20;;;5.10;90.10;;;;;;5041529;28;20056;-59
2020/12/31 12:01:24;;;;;;;7.82;5.20;;;5.10;90.10;;;;;;5040686;28;20096;-57
2020/12/31 12:03:49;;;;;;;7.97;6.30;;;5.10;90.10;;;;;;5000368;28;20071;-56
2020/12/31 12:06:15;;;;;;;12.60;6.30;;;5.10;90.10;;;;;;5038235;28;20044;-58
2020/12/31 12:08:40;;;;;;;10.70;5.38;;;5.20;90.20;;;;;;5043030;28;20060;-57
2020/12/31 12:11:06;;;;;;;8.10;5.63;;;5.10;90.10;;;;;;5021632;28;20108;-57
2020/12/31 12:13:31;;;;;;;8.00;5.40;;;5.20;90.10;;;;;;5048442;28;20028;-59
2020/12/31 12:15:57;;;;;;;6.35;5.53;;;5.20;90.00;;;;;;5040433;28;20028;-58
2020/12/31 12:18:26;;;;;;;7.95;5.18;;;5.20;90.00;;;;;;5041475;28;20080;-57
2020/12/31 12:20:52;;;;;;;8.10;5.32;;;5.20;89.80;;;;;;5044663;28;20047;-57
2020/12/31 12:23:17;;;;;;;11.07;5.68;;;5.20;90.00;;;;;;5043852;28;20480;-58
2020/12/31 12:25:43;;;;;;;7.35;5.47;;;5.20;89.80;;;;;;5043677;28;20029;-58
2020/12/31 12:28:09;;;;;;;8.70;5.47;;;5.30;89.80;;;;;;5017382;28;20118;-57
2020/12/31 12:30:34;;;;;;;8.07;5.95;;;5.20;89.80;;;;;;5035961;28;20037;-56
2020/12/31 12:33:00;;;;;;;7.68;5.55;;;5.20;89.60;;;;;;5024725;28;20547;-57
2020/12/31 12:35:25;;;;;;;7.38;5.07;;;5.30;89.70;;;;;;5033896;28;20076;-58
2020/12/31 12:37:51;;;;;;;9.82;5.65;;;5.30;89.70;;;;;;5043109;28;20071;-57
2020/12/31 12:40:16;;;;;;;10.02;5.28;;;5.30;89.70;;;;;;5044950;28;20508;-58
2020/12/31 12:42:42;;;;;;;7.90;5.88;;;5.30;89.60;;;;;;5045040;28;20365;-58
2020/12/31 12:45:08;;;;;;;8.20;4.80;;;5.30;89.60;;;;;;5043906;28;20083;-59
2020/12/31 12:47:36;;;;;;;8.75;5.45;;;5.40;89.60;;;;;;5046080;28;20495;-58
2020/12/31 12:50:03;;;;;;;7.07;5.95;;;5.40;90.00;;;;;;5043270;28;20028;-58
2020/12/31 12:52:29;;;;;;;8.63;5.57;;;5.40;89.50;;;;;;5025776;28;20040;-56
2020/12/31 12:54:54;;;;;;;6.45;5.05;;;5.40;89.40;;;;;;5038920;28;20022;-58